Time;durP1;ratioP1;P1;durP2;ratioP2;P2;SDS_P1;SDS_P2;PMS_P1;PMS_P2;Temp;Humidity;BMP_temperature;BMP_pressure;BME280_temperature;BME280_humidity;BME280_pressure;Samples;Min_cycle;Max_cycle;Signal;HPM_P1;HPM_P2
2023/05/03 00:02:56;;;;;;;24.83;18.95;;;16.00;99.90;;;;;;5090981;28;20399;-84
2023/05/03 00:06:14;;;;;;;25.30;18.88;;;16.00;99.90;;;;;;5093034;28;20035;-87
2023/05/03 00:09:20;;;;;;;31.95;18.77;;;16.00;99.90;;;;;;5094994;28;20055;-86
2023/05/03 00:12:23;;;;;;;29.55;18.02;;;16.00;99.90;;;;;;5093712;28;20051;-86
2023/05/03 00:15:28;;;;;;;29.08;19.45;;;16.10;99.90;;;;;;5094449;28;20420;-85
2023/05/03 00:18:31;;;;;;;26.25;17.77;;;16.10;99.90;;;;;;5094333;28;20590;-85
2023/05/03 00:21:35;;;;;;;25.83;18.90;;;16.10;99.90;;;;;;5094024;28;20403;-86
2023/05/03 00:24:39;;;;;;;29.25;19.63;;;16.10;99.90;;;;;;5094552;28;20039;-86
2023/05/03 00:27:42;;;;;;;25.45;18.70;;;16.10;99.90;;;;;;5094144;28;20055;-87
2023/05/03 00:30:46;;;;;;;29.00;18.27;;;16.10;99.90;;;;;;5093570;28;20063;-86
2023/05/03 00:33:50;;;;;;;31.05;19.55;;;16.10;99.90;;;;;;5094272;28;20501;-86
2023/05/03 00:36:54;;;;;;;32.25;20.55;;;15.80;99.90;;;;;;5094191;28;20050;-86
2023/05/03 00:39:58;;;;;;;33.55;20.25;;;15.90;99.90;;;;;;5095108;28;20194;-85
2023/05/03 00:43:02;;;;;;;27.23;19.17;;;15.90;99.90;;;;;;5094376;28;20051;-83
2023/05/03 00:46:08;;;;;;;30.00;20.77;;;16.00;99.90;;;;;;5094546;28;20039;-87
2023/05/03 00:49:12;;;;;;;30.40;20.95;;;15.40;99.90;;;;;;5094177;28;20495;-86
2023/05/03 00:52:16;;;;;;;31.50;23.10;;;15.90;99.90;;;;;;5094423;28;20039;-86
2023/05/03 00:55:21;;;;;;;28.65;22.40;;;15.50;99.90;;;;;;5094036;28;20411;-86
2023/05/03 00:58:25;;;;;;;32.90;23.40;;;16.00;99.90;;;;;;5093267;28;20043;-86
2023/05/03 01:01:29;;;;;;;31.42;22.83;;;15.90;99.90;;;;;;5093851;28;20051;-87
2023/05/03 01:04:33;;;;;;;30.50;18.17;;;16.00;99.90;;;;;;5092875;28;20043;-86
2023/05/03 01:08:08;;;;;;;30.95;19.60;;;16.10;99.90;;;;;;5092688;28;20050;-86
2023/05/03 01:11:22;;;;;;;23.55;16.98;;;16.00;99.90;;;;;;5091300;28;20055;-84
2023/05/03 01:14:30;;;;;;;24.35;18.45;;;16.10;99.90;;;;;;5092428;28;20035;-85
2023/05/03 01:17:38;;;;;;;32.47;20.80;;;16.20;99.90;;;;;;5093108;28;20399;-86
2023/05/03 01:20:47;;;;;;;30.75;19.83;;;16.20;99.90;;;;;;5092899;28;20047;-86
2023/05/03 01:24:16;;;;;;;32.80;23.20;;;16.20;99.90;;;;;;5092878;28;20062;-87
2023/05/03 01:27:20;;;;;;;37.08;23.90;;;16.20;99.90;;;;;;5092364;28;20055;-84
2023/05/03 01:30:27;;;;;;;37.78;24.88;;;16.10;99.90;;;;;;5093288;28;20051;-84
2023/05/03 01:33:46;;;;;;;39.30;25.67;;;16.20;99.90;;;;;;5093523;28;20118;-86
2023/05/03 01:36:54;;;;;;;41.20;26.48;;;16.20;99.90;;;;;;5093199;28;20066;-87
2023/05/03 01:40:06;;;;;;;39.83;25.92;;;16.10;99.90;;;;;;5093378;28;20047;-83
2023/05/03 01:43:15;;;;;;;35.28;23.75;;;16.10;99.90;;;;;;5094075;28;20051;-86
2023/05/03 01:46:19;;;;;;;41.20;24.10;;;16.10;99.90;;;;;;5093855;28;20054;-86
2023/05/03 01:49:23;;;;;;;39.75;23.85;;;;;;;;;;5094822;28;20043;-85
2023/05/03 01:52:27;;;;;;;25.02;16.10;;;15.80;99.90;;;;;;5094255;28;20113;-86
2023/05/03 01:55:31;;;;;;;23.23;13.80;;;15.80;99.90;;;;;;5093590;28;20055;-85
2023/05/03 01:58:35;;;;;;;17.58;12.48;;;15.80;99.90;;;;;;5092315;28;20047;-85
2023/05/03 02:01:39;;;;;;;25.55;16.58;;;16.00;99.90;;;;;;5093131;28;20625;-85
2023/05/03 02:04:44;;;;;;;19.58;12.60;;;15.90;99.90;;;;;;5091652;28;20047;-85
2023/05/03 02:07:49;;;;;;;16.50;11.43;;;16.00;99.90;;;;;;5091580;28;20043;-86
2023/05/03 02:10:53;;;;;;;19.17;10.65;;;16.00;99.90;;;;;;5091856;28;20047;-86
2023/05/03 02:13:57;;;;;;;12.20;8.25;;;16.10;99.90;;;;;;5093486;28;20043;-85
2023/05/03 02:17:01;;;;;;;10.55;6.75;;;15.40;99.90;;;;;;5093001;28;20055;-86
2023/05/03 02:20:09;;;;;;;14.75;7.30;;;16.00;99.90;;;;;;5093348;28;20054;-84
2023/05/03 02:23:13;;;;;;;11.60;6.18;;;16.10;99.90;;;;;;5093101;28;20043;-86
2023/05/03 02:26:17;;;;;;;12.25;7.13;;;17.60;99.90;;;;;;5093345;28;20154;-86
2023/05/03 02:29:21;;;;;;;8.43;5.70;;;16.10;99.90;;;;;;5092484;28;20396;-86
2023/05/03 02:32:25;;;;;;;8.23;4.68;;;15.50;99.90;;;;;;5092892;28;20035;-86
2023/05/03 02:35:29;;;;;;;9.23;4.10;;;16.20;99.90;;;;;;5091801;28;20063;-85
2023/05/03 02:38:33;;;;;;;6.95;3.63;;;16.20;99.90;;;;;;5092157;28;20035;-86
2023/05/03 02:41:37;;;;;;;4.40;2.60;;;16.30;99.90;;;;;;5092150;28;20039;-86
2023/05/03 02:44:41;;;;;;;5.15;2.20;;;;;;;;;;5091834;28;20059;-86
2023/05/03 02:47:45;;;;;;;5.63;2.30;;;16.40;99.90;;;;;;5091284;28;20032;-87
2023/05/03 02:50:53;;;;;;;5.10;2.00;;;16.40;99.90;;;;;;5091881;28;20043;-86
2023/05/03 02:53:57;;;;;;;8.52;2.08;;;16.50;99.90;;;;;;5091949;28;20055;-87
2023/05/03 02:57:03;;;;;;;9.93;2.50;;;16.50;99.90;;;;;;5091766;28;20058;-83
2023/05/03 03:00:09;;;;;;;4.50;1.75;;;16.50;99.90;;;;;;5091487;28;20042;-85
2023/05/03 03:03:13;;;;;;;3.25;2.00;;;16.60;99.90;;;;;;5092667;28;20043;-86
2023/05/03 03:06:17;;;;;;;4.45;2.10;;;16.60;99.90;;;;;;5080798;28;20384;-86
2023/05/03 03:09:21;;;;;;;6.30;2.05;;;16.60;99.90;;;;;;5093029;28;20043;-85
2023/05/03 03:12:27;;;;;;;2.78;1.83;;;16.70;99.90;;;;;;5091986;28;20051;-83
2023/05/03 03:15:32;;;;;;;3.08;1.92;;;16.70;99.90;;;;;;5090774;28;20051;-82
2023/05/03 03:18:36;;;;;;;3.35;1.88;;;18.90;99.90;;;;;;5091001;28;20039;-80
2023/05/03 03:21:40;;;;;;;2.38;2.05;;;;;;;;;;5090892;28;20507;-79
2023/05/03 03:24:46;;;;;;;2.95;1.85;;;16.70;99.90;;;;;;5090829;28;20043;-85
2023/05/03 03:27:50;;;;;;;7.93;2.00;;;16.70;99.90;;;;;;5091406;28;20055;-82
2023/05/03 03:30:54;;;;;;;2.85;2.22;;;16.70;99.90;;;;;;5092562;28;20039;-82
2023/05/03 03:34:01;;;;;;;3.60;2.00;;;16.70;99.90;;;;;;5091535;28;20051;-84
2023/05/03 03:37:07;;;;;;;5.78;2.38;;;16.70;99.90;;;;;;5091340;28;20062;-83
2023/05/03 03:40:12;;;;;;;7.72;1.88;;;16.70;99.90;;;;;;5093240;28;20035;-80
2023/05/03 03:43:17;;;;;;;4.05;1.58;;;16.70;99.90;;;;;;5097682;28;20047;-82
2023/05/03 03:46:22;;;;;;;3.90;1.70;;;16.70;99.90;;;;;;5085795;28;20043;-85
2023/05/03 03:49:29;;;;;;;4.75;2.13;;;16.70;99.90;;;;;;5097211;28;20047;-84
2023/05/03 03:52:33;;;;;;;4.57;1.50;;;16.70;99.90;;;;;;5097648;28;20058;-85
2023/05/03 03:55:39;;;;;;;4.45;2.33;;;16.70;99.90;;;;;;5097322;28;20059;-81
2023/05/03 03:58:44;;;;;;;3.67;1.80;;;16.70;99.90;;;;;;5096997;28;20039;-85
2023/05/03 04:01:49;;;;;;;4.65;1.88;;;16.80;99.90;;;;;;5097626;28;20536;-80
2023/05/03 04:04:53;;;;;;;4.97;2.30;;;16.80;99.90;;;;;;5098192;28;20226;-85
2023/05/03 04:07:57;;;;;;;3.58;2.00;;;16.80;99.90;;;;;;5098173;28;20043;-85
2023/05/03 04:11:11;;;;;;;2.67;1.67;;;16.70;99.90;;;;;;5097910;28;20498;-81
2023/05/03 04:14:18;;;;;;;2.13;1.92;;;16.80;99.90;;;;;;5097298;28;20043;-82
2023/05/03 04:17:23;;;;;;;2.33;1.65;;;16.80;99.90;;;;;;5098027;28;20498;-84
2023/05/03 04:20:28;;;;;;;5.70;1.70;;;17.40;99.90;;;;;;5100257;28;20047;-85
2023/05/03 04:23:33;;;;;;;6.53;1.67;;;15.20;99.90;;;;;;5097888;28;20137;-85
2023/05/03 04:26:39;;;;;;;5.28;1.60;;;16.60;99.90;;;;;;5097876;28;20058;-80
2023/05/03 04:29:50;;;;;;;8.98;1.60;;;16.60;99.90;;;;;;5097398;28;20051;-86
2023/05/03 04:32:57;;;;;;;4.00;1.20;;;16.80;99.90;;;;;;5096829;28;20047;-80
2023/05/03 04:36:03;;;;;;;6.88;1.75;;;;;;;;;;5097053;28;20055;-87
2023/05/03 04:39:10;;;;;;;6.72;1.50;;;16.80;99.90;;;;;;5096973;28;20471;-86
2023/05/03 04:42:15;;;;;;;2.13;1.38;;;16.70;99.90;;;;;;5097163;28;20039;-85
2023/05/03 04:45:20;;;;;;;3.38;1.38;;;16.70;99.90;;;;;;5096732;28;20047;-86
2023/05/03 04:48:25;;;;;;;2.20;1.17;;;16.70;99.90;;;;;;5097209;28;20047;-84
2023/05/03 04:51:29;;;;;;;1.73;1.27;;;16.70;99.90;;;;;;5095295;28;20404;-85
2023/05/03 04:54:34;;;;;;;1.98;1.35;;;16.70;99.90;;;;;;5093534;28;20047;-84
2023/05/03 04:57:38;;;;;;;3.80;1.30;;;16.80;99.90;;;;;;5093970;28;20273;-83
2023/05/03 05:00:45;;;;;;;3.75;1.17;;;16.80;99.90;;;;;;5093732;28;20051;-85
2023/05/03 05:03:55;;;;;;;1.83;1.50;;;16.80;99.90;;;;;;5093569;28;20047;-85
2023/05/03 05:07:05;;;;;;;2.78;2.05;;;16.90;99.90;;;;;;5094153;28;20047;-85
2023/05/03 05:10:11;;;;;;;4.80;1.67;;;16.80;99.90;;;;;;5094125;28;20050;-85
2023/05/03 05:13:16;;;;;;;3.13;1.50;;;18.90;99.90;;;;;;5093839;28;20051;-81
2023/05/03 05:16:20;;;;;;;5.35;1.60;;;16.90;99.80;;;;;;5093685;28;20063;-87
2023/05/03 05:19:29;;;;;;;7.28;2.00;;;17.00;99.60;;;;;;5094386;28;20051;-87
2023/05/03 05:22:33;;;;;;;5.68;1.70;;;17.10;99.70;;;;;;5093658;28;20043;-82
2023/05/03 05:25:38;;;;;;;9.55;2.45;;;17.10;99.70;;;;;;5082120;28;20047;-82
2023/05/03 05:28:42;;;;;;;2.00;1.33;;;17.10;99.90;;;;;;5093005;28;20506;-80
2023/05/03 05:31:47;;;;;;;5.75;1.60;;;17.10;99.90;;;;;;5094392;28;20388;-84
2023/05/03 05:34:54;;;;;;;6.95;1.50;;;17.10;99.90;;;;;;5093302;28;20046;-87
2023/05/03 05:37:59;;;;;;;2.20;1.35;;;17.10;99.90;;;;;;5092829;28;20051;-82
2023/05/03 05:41:05;;;;;;;15.30;2.08;;;17.10;99.80;;;;;;5093847;28;20043;-84
2023/05/03 05:44:09;;;;;;;6.65;1.90;;;17.10;99.90;;;;;;5094321;28;20404;-81
2023/05/03 05:47:15;;;;;;;3.85;1.58;;;17.10;99.90;;;;;;5092955;28;20039;-85
2023/05/03 05:50:21;;;;;;;3.08;1.95;;;17.10;99.90;;;;;;5092976;28;20051;-75
2023/05/03 05:53:37;;;;;;;3.65;2.30;;;17.10;99.90;;;;;;5092668;28;20047;-70
2023/05/03 05:56:41;;;;;;;7.03;2.55;;;17.00;99.90;;;;;;5091751;28;20075;-70
2023/05/03 05:59:47;;;;;;;5.03;1.63;;;17.10;99.90;;;;;;5091829;28;20047;-72
2023/05/03 06:02:51;;;;;;;9.45;2.00;;;17.10;99.90;;;;;;5091556;28;20063;-70
2023/05/03 06:05:59;;;;;;;3.25;1.55;;;17.20;99.90;;;;;;5091834;28;20387;-70
2023/05/03 06:09:04;;;;;;;4.38;2.03;;;17.10;99.30;;;;;;5092207;28;20043;-69
2023/05/03 06:12:09;;;;;;;3.65;1.80;;;17.10;98.80;;;;;;5091465;28;20058;-73
2023/05/03 06:15:18;;;;;;;5.85;2.25;;;17.10;98.70;;;;;;5091635;28;20047;-72
2023/05/03 06:18:23;;;;;;;5.07;1.88;;;17.10;98.90;;;;;;5091560;28;20043;-73
2023/05/03 06:21:28;;;;;;;10.20;1.92;;;17.20;98.60;;;;;;5091251;28;20047;-72
2023/05/03 06:24:33;;;;;;;3.70;2.15;;;17.20;98.90;;;;;;5091172;28;20050;-72
2023/05/03 06:27:40;;;;;;;6.78;2.65;;;17.20;99.20;;;;;;5090891;28;20043;-72
2023/05/03 06:30:51;;;;;;;19.08;2.53;;;17.20;99.50;;;;;;5091229;28;20039;-72
2023/05/03 06:33:56;;;;;;;4.03;2.20;;;17.20;99.10;;;;;;5092075;28;20043;-72
2023/05/03 06:37:00;;;;;;;3.78;2.22;;;17.30;99.20;;;;;;5091867;28;20055;-71
2023/05/03 06:40:05;;;;;;;6.85;2.35;;;17.20;98.70;;;;;;5091717;28;20047;-70
2023/05/03 06:43:09;;;;;;;3.22;2.00;;;17.30;98.50;;;;;;5092149;28;20067;-73
2023/05/03 06:46:19;;;;;;;3.38;1.90;;;17.30;98.10;;;;;;5091282;28;20043;-73
2023/05/03 06:49:23;;;;;;;3.95;2.13;;;17.50;98.30;;;;;;5091434;28;20047;-78
2023/05/03 06:52:27;;;;;;;5.25;2.42;;;17.40;98.40;;;;;;5092371;28;20039;-74
2023/05/03 06:55:31;;;;;;;3.58;2.10;;;17.40;98.50;;;;;;5091384;28;20514;-74
2023/05/03 06:58:36;;;;;;;12.45;2.40;;;17.40;98.00;;;;;;5092129;28;20051;-73
2023/05/03 07:01:40;;;;;;;4.60;2.40;;;17.50;98.40;;;;;;5091498;28;20085;-72
2023/05/03 07:04:44;;;;;;;4.90;2.42;;;17.40;98.50;;;;;;5091510;28;20047;-71
2023/05/03 07:07:48;;;;;;;5.07;2.08;;;17.50;98.50;;;;;;5090878;28;20072;-72
2023/05/03 07:10:52;;;;;;;3.92;2.50;;;17.50;98.40;;;;;;5090890;28;20051;-70
2023/05/03 07:13:55;;;;;;;5.70;2.75;;;17.50;98.60;;;;;;5091574;28;20047;-75
2023/05/03 07:17:00;;;;;;;6.35;2.47;;;17.50;98.50;;;;;;5090921;28;20380;-77
2023/05/03 07:20:05;;;;;;;7.55;2.28;;;17.50;98.80;;;;;;5091335;28;20039;-74
2023/05/03 07:23:09;;;;;;;3.58;2.35;;;17.40;98.70;;;;;;5091050;28;20066;-75
2023/05/03 07:26:13;;;;;;;7.18;2.28;;;17.40;98.60;;;;;;5090809;28;20042;-76
2023/05/03 07:29:17;;;;;;;7.57;2.92;;;17.50;98.90;;;;;;5090335;28;20050;-75
2023/05/03 07:32:21;;;;;;;6.47;2.60;;;17.50;99.10;;;;;;5091146;28;20051;-74
2023/05/03 07:35:28;;;;;;;4.03;2.67;;;17.40;99.00;;;;;;5090960;28;20062;-76
2023/05/03 07:38:32;;;;;;;4.03;2.38;;;17.40;99.00;;;;;;5091240;28;20051;-77
2023/05/03 07:41:36;;;;;;;3.10;2.42;;;17.40;98.80;;;;;;5090885;28;20039;-75
2023/05/03 07:44:40;;;;;;;3.20;2.60;;;17.40;99.10;;;;;;5090771;28;20047;-75
2023/05/03 07:47:44;;;;;;;3.10;2.33;;;17.50;99.10;;;;;;5090956;28;20043;-77
2023/05/03 07:50:48;;;;;;;3.90;2.03;;;17.60;99.00;;;;;;5090748;28;20039;-76
2023/05/03 07:53:52;;;;;;;6.85;3.40;;;17.60;98.40;;;;;;5091052;28;20511;-76
2023/05/03 07:56:56;;;;;;;2.75;1.67;;;17.60;98.50;;;;;;5090696;28;20058;-75
2023/05/03 08:00:01;;;;;;;38.53;7.65;;;17.60;98.80;;;;;;5090854;28;20522;-76
2023/05/03 08:03:05;;;;;;;3.90;1.40;;;17.60;99.00;;;;;;5090732;28;20043;-74
2023/05/03 08:06:09;;;;;;;8.35;1.20;;;17.60;98.60;;;;;;5090612;28;20526;-75
2023/05/03 08:09:13;;;;;;;2.28;1.00;;;17.70;98.70;;;;;;5089706;28;20043;-75
2023/05/03 08:12:17;;;;;;;5.93;1.40;;;17.60;98.40;;;;;;5090529;28;20051;-74
2023/05/03 08:15:21;;;;;;;3.17;0.98;;;17.70;98.60;;;;;;5090601;28;20667;-77
2023/05/03 08:18:26;;;;;;;2.22;0.90;;;17.70;97.40;;;;;;5090452;28;20506;-75
2023/05/03 08:21:32;;;;;;;3.15;0.93;;;17.80;97.50;;;;;;5090588;28;20039;-73
2023/05/03 08:24:35;;;;;;;5.72;1.05;;;17.80;98.00;;;;;;5089665;28;20162;-75
2023/05/03 08:27:39;;;;;;;4.40;1.15;;;17.80;98.10;;;;;;5092240;28;20114;-73
2023/05/03 08:30:43;;;;;;;2.83;1.00;;;17.90;98.40;;;;;;5094587;28;20051;-74
2023/05/03 08:33:48;;;;;;;8.48;1.10;;;17.90;98.20;;;;;;5093301;28;20048;-76
2023/05/03 08:36:51;;;;;;;3.25;0.88;;;17.90;98.00;;;;;;5093760;28;20055;-74
2023/05/03 08:39:55;;;;;;;2.00;1.00;;;17.90;97.60;;;;;;5094142;28;20047;-74
2023/05/03 08:43:07;;;;;;;1.63;1.00;;;17.90;97.60;;;;;;5092139;28;20043;-77
2023/05/03 08:46:12;;;;;;;1.88;0.88;;;18.00;97.60;;;;;;5092886;28;20043;-70
2023/05/03 08:49:20;;;;;;;3.42;1.10;;;18.00;97.00;;;;;;5093003;28;20059;-76
2023/05/03 08:52:24;;;;;;;4.35;1.00;;;18.10;96.80;;;;;;5092830;28;20039;-74
2023/05/03 08:55:28;;;;;;;4.32;0.93;;;18.10;97.10;;;;;;5093572;28;20067;-72
2023/05/03 08:58:34;;;;;;;6.28;0.90;;;18.10;96.50;;;;;;5093601;28;20051;-73
2023/05/03 09:01:40;;;;;;;1.60;0.73;;;18.20;96.80;;;;;;5093886;28;20614;-72
2023/05/03 09:04:44;;;;;;;1.95;0.75;;;18.20;96.00;;;;;;5094169;28;20039;-77
2023/05/03 09:08:10;;;;;;;3.15;1.00;;;18.30;96.10;;;;;;5093553;28;20094;-73
2023/05/03 09:11:25;;;;;;;18.75;2.90;;;18.30;96.20;;;;;;5093448;28;20067;-73
2023/05/03 09:14:28;;;;;;;4.45;0.90;;;18.50;96.20;;;;;;5093394;28;20047;-72
2023/05/03 09:17:32;;;;;;;5.63;1.20;;;18.50;96.10;;;;;;5093289;28;20051;-74
2023/05/03 09:20:38;;;;;;;3.17;0.80;;;18.60;96.40;;;;;;5093357;28;20043;-75
2023/05/03 09:23:42;;;;;;;2.72;0.70;;;18.70;96.30;;;;;;5093581;28;20051;-77
2023/05/03 09:26:49;;;;;;;9.13;1.00;;;18.70;95.50;;;;;;5092037;28;20051;-76
2023/05/03 09:29:53;;;;;;;2.35;1.00;;;18.80;95.50;;;;;;5092992;28;20047;-76
2023/05/03 09:32:58;;;;;;;1.95;1.23;;;18.80;95.30;;;;;;5093375;28;20071;-76
2023/05/03 09:36:03;;;;;;;3.78;1.00;;;18.80;95.20;;;;;;5092764;28;20138;-74
2023/05/03 09:39:16;;;;;;;1.90;1.00;;;18.90;95.30;;;;;;5092320;28;20426;-76
2023/05/03 09:42:20;;;;;;;3.72;1.50;;;18.90;95.50;;;;;;5093051;28;20065;-74
2023/05/03 09:45:24;;;;;;;6.15;1.23;;;18.90;95.30;;;;;;5080468;28;20043;-75
2023/05/03 09:48:27;;;;;;;7.78;1.40;;;18.80;95.10;;;;;;5092081;28;20043;-73
2023/05/03 09:51:31;;;;;;;6.68;1.80;;;18.80;95.50;;;;;;5092713;28;20039;-70
2023/05/03 09:54:36;;;;;;;7.25;1.75;;;18.80;95.50;;;;;;5092574;28;20051;-73
2023/05/03 09:57:45;;;;;;;3.95;1.92;;;18.80;96.00;;;;;;5092693;28;20046;-73
2023/05/03 10:00:50;;;;;;;3.35;1.60;;;18.80;95.40;;;;;;5092746;28;20043;-75
2023/05/03 10:03:56;;;;;;;5.22;1.67;;;18.90;95.20;;;;;;5092728;28;20047;-73
2023/05/03 10:07:06;;;;;;;4.10;1.95;;;18.90;94.90;;;;;;5092390;28;20107;-74
2023/05/03 10:10:11;;;;;;;4.75;1.55;;;18.80;95.20;;;;;;5091777;28;20054;-73
2023/05/03 10:13:15;;;;;;;9.43;2.50;;;18.90;95.40;;;;;;5092650;28;20379;-73
2023/05/03 10:16:29;;;;;;;6.70;2.13;;;19.00;94.80;;;;;;5092069;28;20646;-71
2023/05/03 10:19:40;;;;;;;2.22;1.40;;;19.10;94.90;;;;;;5092356;28;20506;-72
2023/05/03 10:23:05;;;;;;;6.85;1.52;;;19.20;94.70;;;;;;5092435;28;20062;-73
2023/05/03 10:26:12;;;;;;;8.95;2.30;;;19.20;94.60;;;;;;5092168;28;20412;-72
2023/05/03 10:29:50;;;;;;;5.50;2.00;;;19.30;94.40;;;;;;5091562;28;20217;-71
2023/05/03 10:32:54;;;;;;;5.40;1.95;;;19.30;93.60;;;;;;5089163;28;20051;-74
2023/05/03 10:36:00;;;;;;;5.60;1.90;;;19.40;93.20;;;;;;5090555;28;20117;-76
2023/05/03 10:39:06;;;;;;;5.72;1.75;;;19.50;93.70;;;;;;5091791;28;20055;-76
2023/05/03 10:42:10;;;;;;;4.57;1.77;;;19.50;93.30;;;;;;5091647;28;20043;-69
2023/05/03 10:45:42;;;;;;;6.40;1.92;;;19.70;92.70;;;;;;5091641;28;20047;-76
2023/05/03 10:49:16;;;;;;;3.33;1.52;;;19.80;92.80;;;;;;5091604;28;20065;-72
2023/05/03 10:52:39;;;;;;;2.00;1.58;;;19.90;92.50;;;;;;5091573;28;20039;-72
2023/05/03 10:56:04;;;;;;;4.15;1.63;;;20.10;92.30;;;;;;5092027;28;20047;-75
2023/05/03 10:59:08;;;;;;;5.28;1.58;;;20.20;92.20;;;;;;5091502;28;20047;-74
2023/05/03 11:02:17;;;;;;;5.78;1.35;;;20.30;91.00;;;;;;5091691;28;20043;-72
2023/05/03 11:05:25;;;;;;;4.45;1.55;;;20.20;90.80;;;;;;5090144;28;20111;-69
2023/05/03 11:08:36;;;;;;;6.25;2.38;;;20.20;91.10;;;;;;5090140;28;20067;-69
2023/05/03 11:11:41;;;;;;;5.30;1.80;;;20.30;90.90;;;;;;5091287;28;20518;-68
2023/05/03 11:14:45;;;;;;;3.65;1.60;;;20.30;90.90;;;;;;5091383;28;20043;-70
2023/05/03 11:17:49;;;;;;;4.20;1.60;;;20.40;90.80;;;;;;5091129;28;20522;-70
2023/05/03 11:20:55;;;;;;;7.18;2.30;;;20.40;90.70;;;;;;5091147;28;20043;-70
2023/05/03 11:24:00;;;;;;;3.78;1.80;;;20.30;91.20;;;;;;5091309;28;20506;-69
2023/05/03 11:27:04;;;;;;;6.07;2.13;;;20.40;91.30;;;;;;5090766;28;20047;-69
2023/05/03 11:30:09;;;;;;;3.15;2.03;;;20.50;91.50;;;;;;5091273;28;20494;-69
2023/05/03 11:33:13;;;;;;;2.78;1.52;;;20.50;91.20;;;;;;5090877;28;20036;-69
2023/05/03 11:36:17;;;;;;;8.63;2.05;;;20.40;91.40;;;;;;5090135;28;20399;-69
2023/05/03 11:39:21;;;;;;;4.30;1.67;;;20.40;91.60;;;;;;5091176;28;20064;-70
2023/05/03 11:42:26;;;;;;;9.23;1.95;;;20.40;91.10;;;;;;5091115;28;20660;-69
2023/05/03 11:45:39;;;;;;;4.10;1.92;;;20.60;91.20;;;;;;5090904;28;20368;-69
2023/05/03 11:48:44;;;;;;;2.33;1.50;;;20.60;91.30;;;;;;5091062;28;20522;-70
2023/05/03 11:51:50;;;;;;;4.38;1.88;;;20.70;91.30;;;;;;5091223;28;20051;-68
2023/05/03 11:54:55;;;;;;;1.70;1.40;;;20.80;90.90;;;;;;5091201;28;20055;-68
2023/05/03 11:58:00;;;;;;;3.80;1.60;;;20.90;90.10;;;;;;5090831;28;20051;-68
2023/05/03 12:01:04;;;;;;;2.83;1.58;;;20.90;90.30;;;;;;5091199;28;20059;-73
2023/05/03 12:04:11;;;;;;;6.25;1.80;;;20.90;90.40;;;;;;5094742;28;20059;-72
2023/05/03 12:07:15;;;;;;;5.97;1.45;;;21.00;91.00;;;;;;5095089;28;20403;-71
2023/05/03 12:10:19;;;;;;;6.38;1.60;;;21.00;90.60;;;;;;5093016;28;20047;-70
2023/05/03 12:13:35;;;;;;;5.28;1.85;;;20.90;90.50;;;;;;5094581;28;20047;-71
2023/05/03 12:16:48;;;;;;;4.45;1.63;;;21.00;91.00;;;;;;5094680;28;20518;-70
2023/05/03 12:20:21;;;;;;;3.08;1.70;;;21.00;90.50;;;;;;5094816;28;20043;-70
2023/05/03 12:23:25;;;;;;;3.00;1.30;;;20.90;90.70;;;;;;5093973;28;20055;-70
2023/05/03 12:26:30;;;;;;;2.50;1.40;;;20.80;90.40;;;;;;5094068;28;20051;-71
2023/05/03 12:29:34;;;;;;;4.63;1.40;;;20.70;90.80;;;;;;5094438;28;20039;-72
2023/05/03 12:32:38;;;;;;;6.03;1.40;;;20.70;90.70;;;;;;5094115;28;20047;-71
2023/05/03 12:35:42;;;;;;;2.15;1.30;;;20.80;90.30;;;;;;5094307;28;20043;-71
2023/05/03 12:38:46;;;;;;;2.97;1.55;;;20.80;90.30;;;;;;5094142;28;20245;-70
2023/05/03 12:41:50;;;;;;;3.45;1.70;;;20.70;90.60;;;;;;5094279;28;20486;-70
2023/05/03 12:44:58;;;;;;;3.10;1.45;;;20.70;90.30;;;;;;5094259;28;20059;-71
2023/05/03 12:48:02;;;;;;;4.30;1.80;;;20.80;89.70;;;;;;5093796;28;20396;-71
2023/05/03 12:51:06;;;;;;;3.95;1.50;;;20.80;90.90;;;;;;5093767;28;20059;-71
2023/05/03 12:54:10;;;;;;;3.42;1.25;;;20.80;90.90;;;;;;5081210;28;20058;-70
2023/05/03 12:57:15;;;;;;;3.03;1.55;;;20.80;89.00;;;;;;5093712;28;20514;-71
2023/05/03 13:00:20;;;;;;;3.80;1.40;;;20.70;89.40;;;;;;5093831;28;20043;-71
2023/05/03 13:03:25;;;;;;;2.97;1.60;;;20.70;90.00;;;;;;5094090;28;20051;-71
2023/05/03 13:06:31;;;;;;;6.53;1.50;;;20.80;90.20;;;;;;5093260;28;20051;-73
2023/05/03 13:09:35;;;;;;;4.18;1.45;;;20.70;90.40;;;;;;5093695;28;20043;-71
2023/05/03 13:12:39;;;;;;;3.13;1.30;;;20.70;90.90;;;;;;5092756;28;20039;-71
2023/05/03 13:15:43;;;;;;;3.75;1.27;;;20.70;90.40;;;;;;5093369;28;20396;-71
2023/05/03 13:18:47;;;;;;;4.03;1.60;;;20.70;90.40;;;;;;5093747;28;20059;-73
2023/05/03 13:21:51;;;;;;;4.72;1.20;;;20.60;90.30;;;;;;5093538;28;20039;-70
2023/05/03 13:24:55;;;;;;;4.43;1.60;;;20.60;90.20;;;;;;5092855;28;20063;-69
2023/05/03 13:28:00;;;;;;;5.10;1.90;;;20.60;90.30;;;;;;5094534;28;20047;-69
2023/05/03 13:31:05;;;;;;;5.70;1.30;;;20.50;89.70;;;;;;5093583;28;20047;-70
2023/05/03 13:34:09;;;;;;;3.80;1.52;;;20.40;90.10;;;;;;5093837;28;20048;-70
2023/05/03 13:37:17;;;;;;;5.75;1.40;;;20.40;90.10;;;;;;5093455;28;20063;-72
2023/05/03 13:40:21;;;;;;;15.57;2.50;;;20.40;90.20;;;;;;5093825;28;20047;-74
2023/05/03 13:43:25;;;;;;;5.18;1.45;;;20.50;90.60;;;;;;5093715;28;20059;-69
2023/05/03 13:46:29;;;;;;;4.50;1.60;;;20.50;90.20;;;;;;5093453;28;20043;-69
2023/05/03 13:49:34;;;;;;;10.27;1.70;;;20.50;90.40;;;;;;5093340;28;20047;-75
2023/05/03 13:52:38;;;;;;;3.42;1.40;;;20.60;90.50;;;;;;5092822;28;20036;-70
2023/05/03 13:55:42;;;;;;;7.43;1.73;;;20.60;90.60;;;;;;5092224;28;20106;-70
2023/05/03 13:58:46;;;;;;;2.50;1.30;;;20.50;90.70;;;;;;5092864;28;20055;-74
2023/05/03 14:01:50;;;;;;;4.30;1.58;;;20.40;90.20;;;;;;5092408;28;20050;-69
2023/05/03 14:04:54;;;;;;;4.13;1.85;;;20.40;90.40;;;;;;5092576;28;20172;-71
2023/05/03 14:07:58;;;;;;;7.10;1.88;;;20.40;90.60;;;;;;5091753;28;20051;-70
2023/05/03 14:11:02;;;;;;;3.70;1.48;;;20.40;90.40;;;;;;5092465;28;20047;-72
2023/05/03 14:14:07;;;;;;;6.47;1.65;;;20.50;90.40;;;;;;5092269;28;20102;-72
2023/05/03 14:17:10;;;;;;;3.33;1.27;;;20.40;89.10;;;;;;5092310;28;20059;-69
2023/05/03 14:20:16;;;;;;;5.25;1.45;;;20.40;89.40;;;;;;5091622;28;20045;-73
2023/05/03 14:23:20;;;;;;;3.90;1.50;;;20.50;89.10;;;;;;5092371;28;20627;-71
2023/05/03 14:26:25;;;;;;;4.00;1.20;;;20.40;88.80;;;;;;5091938;28;20055;-71
2023/05/03 14:29:29;;;;;;;4.20;1.38;;;20.40;87.90;;;;;;5091760;28;20035;-71
2023/05/03 14:32:33;;;;;;;5.38;1.40;;;20.40;90.30;;;;;;5092279;28;20051;-80
2023/05/03 14:35:39;;;;;;;5.45;1.42;;;20.30;88.70;;;;;;5092089;28;20639;-70
2023/05/03 14:38:42;;;;;;;5.90;1.50;;;20.30;90.10;;;;;;5092048;28;20054;-70
2023/05/03 14:41:48;;;;;;;4.50;1.52;;;20.30;89.80;;;;;;5092100;28;20043;-70
2023/05/03 14:44:52;;;;;;;2.10;1.20;;;20.40;89.30;;;;;;5092025;28;20050;-72
2023/05/03 14:47:56;;;;;;;6.50;1.25;;;20.40;89.30;;;;;;5091872;28;20047;-69
2023/05/03 14:51:00;;;;;;;2.28;1.30;;;20.40;89.30;;;;;;5091913;28;20067;-69
2023/05/03 14:54:04;;;;;;;7.20;1.55;;;20.40;89.70;;;;;;5091836;28;20043;-72
2023/05/03 14:57:08;;;;;;;4.70;1.40;;;20.40;89.60;;;;;;5091462;28;20598;-72
2023/05/03 15:00:13;;;;;;;3.75;1.20;;;20.50;89.80;;;;;;5090588;28;20131;-76
2023/05/03 15:03:17;;;;;;;4.18;1.30;;;20.50;89.50;;;;;;5091628;28;20399;-72
2023/05/03 15:06:27;;;;;;;3.40;1.40;;;20.50;89.40;;;;;;5090693;28;20062;-76
2023/05/03 15:09:32;;;;;;;4.88;1.70;;;20.60;88.60;;;;;;5091315;28;20051;-72
2023/05/03 15:12:38;;;;;;;4.95;1.52;;;20.60;90.30;;;;;;5091368;28;20043;-74
2023/05/03 15:15:42;;;;;;;4.65;1.75;;;20.70;89.70;;;;;;5089621;28;20050;-70
2023/05/03 15:18:47;;;;;;;4.53;1.52;;;20.70;89.10;;;;;;5090803;28;20050;-68
2023/05/03 15:21:51;;;;;;;5.40;1.90;;;20.70;90.20;;;;;;5090189;28;20526;-69
2023/05/03 15:24:55;;;;;;;5.95;1.98;;;20.70;90.10;;;;;;5091159;28;20066;-69
2023/05/03 15:27:59;;;;;;;5.35;1.90;;;20.80;90.50;;;;;;5090497;28;20051;-69
2023/05/03 15:31:03;;;;;;;7.40;1.80;;;20.80;90.00;;;;;;5091750;28;20051;-68
2023/05/03 15:34:06;;;;;;;3.55;1.60;;;20.70;90.70;;;;;;5090890;28;20039;-71
2023/05/03 15:37:11;;;;;;;4.97;1.83;;;20.80;90.20;;;;;;5090260;28;20063;-69
2023/05/03 15:40:17;;;;;;;12.80;3.55;;;20.80;90.50;;;;;;5090771;28;20039;-69
2023/05/03 15:43:21;;;;;;;9.43;2.83;;;20.80;90.40;;;;;;5091067;28;20043;-69
2023/05/03 15:46:25;;;;;;;16.00;8.85;;;20.90;90.50;;;;;;5090622;28;20503;-69
2023/05/03 15:49:29;;;;;;;20.58;14.45;;;20.90;90.40;;;;;;5090671;28;20047;-69
2023/05/03 15:52:33;;;;;;;8.98;5.57;;;20.90;90.30;;;;;;5090537;28;20047;-70
2023/05/03 15:55:37;;;;;;;2.17;1.40;;;20.80;90.00;;;;;;5090489;28;20503;-70
2023/05/03 15:58:41;;;;;;;4.40;1.63;;;20.80;89.20;;;;;;5090187;28;20055;-70
2023/05/03 16:01:46;;;;;;;4.45;1.70;;;20.70;87.10;;;;;;5090799;28;20039;-68
2023/05/03 16:04:50;;;;;;;5.60;1.88;;;20.60;87.80;;;;;;5090698;28;20051;-69
2023/05/03 16:07:54;;;;;;;5.45;1.35;;;20.60;87.30;;;;;;5090577;28;20047;-70